createdAt,value
2019-06-08T00:01:00.979Z,89.30
2019-06-08T00:03:33.172Z,89.10
2019-06-08T00:06:05.454Z,88.60
2019-06-08T00:08:38.021Z,87.60
2019-06-08T00:11:09.905Z,87.50
2019-06-08T00:13:42.053Z,87.50
2019-06-08T00:16:15.314Z,87.50
2019-06-08T00:18:47.594Z,87.60
2019-06-08T00:21:20.091Z,87.70
2019-06-08T00:23:52.977Z,87.60
2019-06-08T00:26:25.478Z,87.30
2019-06-08T00:28:57.808Z,86.80
2019-06-08T00:31:30.550Z,87.70
2019-06-08T00:34:02.445Z,88.10
2019-06-08T00:36:34.687Z,88.40
2019-06-08T00:39:10.964Z,88.10
2019-06-08T00:41:43.018Z,87.10
2019-06-08T00:44:15.258Z,86.00
2019-06-08T00:46:47.900Z,85.50
2019-06-08T00:49:20.572Z,85.20
2019-06-08T00:51:52.892Z,85.00
2019-06-08T00:54:25.787Z,84.60
2019-06-08T00:56:57.939Z,84.30
2019-06-08T00:59:30.450Z,83.20
2019-06-08T01:02:03.120Z,82.00
2019-06-08T01:04:35.236Z,81.70
2019-06-08T01:07:07.330Z,81.60
2019-06-08T01:09:39.798Z,80.90
2019-06-08T01:12:11.875Z,80.50
2019-06-08T01:14:44.067Z,80.70
2019-06-08T01:17:16.619Z,80.50
2019-06-08T01:19:49.835Z,80.80
2019-06-08T01:22:23.661Z,79.80
2019-06-08T01:24:56.312Z,78.80
2019-06-08T01:27:28.585Z,78.60
2019-06-08T01:30:00.864Z,78.70
2019-06-08T01:32:33.485Z,79.00
2019-06-08T01:35:07.252Z,78.90
2019-06-08T01:37:39.395Z,78.30
2019-06-08T01:40:11.976Z,78.60
2019-06-08T01:42:44.194Z,78.40
2019-06-08T01:45:18.438Z,78.00
2019-06-08T01:47:50.659Z,77.80
2019-06-08T01:50:22.676Z,78.20
2019-06-08T01:52:55.044Z,78.10
2019-06-08T01:55:27.092Z,78.00
2019-06-08T01:57:59.518Z,78.10
2019-06-08T02:00:40.581Z,78.20
2019-06-08T02:03:07.802Z,78.40
2019-06-08T02:05:43.402Z,77.50
2019-06-08T02:08:18.678Z,77.20
2019-06-08T02:10:50.922Z,76.60
2019-06-08T02:13:23.155Z,76.10
2019-06-08T02:15:55.586Z,76.40
2019-06-08T02:18:50.828Z,76.20
2019-06-08T02:21:20.579Z,75.70
2019-06-08T02:24:01.990Z,75.80
2019-06-08T02:26:35.047Z,75.70
2019-06-08T02:29:08.496Z,75.40
2019-06-08T02:31:43.357Z,74.70
2019-06-08T02:34:15.681Z,73.80
2019-06-08T02:36:48.056Z,74.60
2019-06-08T02:39:20.791Z,74.50
2019-06-08T02:41:52.873Z,74.40
2019-06-08T02:44:24.841Z,75.10
2019-06-08T02:47:21.412Z,73.20
2019-06-08T02:49:53.710Z,73.80
2019-06-08T02:52:26.877Z,73.80
2019-06-08T02:54:59.927Z,72.50
2019-06-08T02:57:36.071Z,72.60
2019-06-08T03:00:31.447Z,71.30
2019-06-08T03:03:05.568Z,70.60
2019-06-08T03:05:40.481Z,70.80
2019-06-08T03:08:26.285Z,71.50
2019-06-08T03:10:59.009Z,70.10
2019-06-08T03:13:33.922Z,69.90
2019-06-08T03:16:06.979Z,69.60
2019-06-08T03:18:40.245Z,69.60
2019-06-08T03:21:16.762Z,69.20
2019-06-08T03:23:49.547Z,68.50
2019-06-08T03:26:21.809Z,69.10
2019-06-08T03:28:54.303Z,68.20
2019-06-08T03:31:27.053Z,66.80
2019-06-08T03:33:59.750Z,66.80
2019-06-08T03:36:34.981Z,66.90
2019-06-08T03:39:06.880Z,66.10
2019-06-08T03:41:40.424Z,66.50
2019-06-08T03:44:13.215Z,65.10
2019-06-08T03:46:45.980Z,64.00
2019-06-08T03:49:50.715Z,63.80
2019-06-08T03:52:31.305Z,63.70
2019-06-08T03:55:03.563Z,63.30
2019-06-08T03:57:42.162Z,64.10
2019-06-08T04:00:23.617Z,64.50
2019-06-08T04:02:55.457Z,64.70
2019-06-08T04:05:27.450Z,64.50
2019-06-08T04:08:00.343Z,63.80
2019-06-08T04:10:32.786Z,64.20
2019-06-08T04:13:04.764Z,64.60
2019-06-08T04:15:37.988Z,64.30
2019-06-08T04:18:10.433Z,64.00
2019-06-08T04:20:45.515Z,65.10
2019-06-08T04:23:35.237Z,64.30
2019-06-08T04:26:07.952Z,64.40
2019-06-08T04:28:40.575Z,64.90
2019-06-08T04:31:13.924Z,65.10
2019-06-08T04:33:47.592Z,63.80
2019-06-08T04:36:19.997Z,64.10
2019-06-08T04:38:53.221Z,63.80
2019-06-08T04:41:25.421Z,63.40
2019-06-08T04:44:01.903Z,62.90
2019-06-08T04:46:43.266Z,62.80
2019-06-08T04:49:15.063Z,63.20
2019-06-08T04:51:49.381Z,62.40
2019-06-08T04:54:21.047Z,61.90
2019-06-08T04:56:54.519Z,61.70
2019-06-08T04:59:26.439Z,60.80
2019-06-08T05:01:58.454Z,60.40
2019-06-08T05:04:31.577Z,59.10
2019-06-08T05:07:04.572Z,58.10
2019-06-08T05:09:36.840Z,57.70
2019-06-08T05:12:09.101Z,56.80
2019-06-08T05:15:02.797Z,57.40
2019-06-08T05:17:35.241Z,56.40
2019-06-08T05:20:09.453Z,56.10
2019-06-08T05:22:41.570Z,55.70
2019-06-08T05:25:13.907Z,56.00
2019-06-08T05:27:47.343Z,55.60
2019-06-08T05:30:20.717Z,55.60
2019-06-08T05:32:53.805Z,54.30
2019-06-08T05:35:25.921Z,53.40
2019-06-08T05:37:57.904Z,54.80
2019-06-08T05:40:29.599Z,54.80
2019-06-08T05:43:21.513Z,54.40
2019-06-08T05:45:54.976Z,55.00
2019-06-08T05:48:27.004Z,55.00
2019-06-08T05:51:19.199Z,55.50
2019-06-08T05:53:51.708Z,55.60
2019-06-08T05:56:23.870Z,55.30
2019-06-08T05:58:55.806Z,55.10
2019-06-08T06:01:28.215Z,55.90
2019-06-08T06:04:00.257Z,55.10
2019-06-08T06:06:32.412Z,55.30
2019-06-08T06:09:05.588Z,54.70
2019-06-08T06:11:37.647Z,55.00
2019-06-08T06:14:11.940Z,54.70
2019-06-08T06:16:44.920Z,54.80
2019-06-08T06:19:16.627Z,55.00
2019-06-08T06:21:49.237Z,54.90
2019-06-08T06:24:21.217Z,54.60
2019-06-08T06:26:53.595Z,54.70
2019-06-08T06:29:25.489Z,54.00
2019-06-08T06:32:17.731Z,53.30
2019-06-08T06:34:49.944Z,52.70
2019-06-08T06:37:22.000Z,53.20
2019-06-08T06:39:54.049Z,54.10
2019-06-08T06:42:26.292Z,53.40
2019-06-08T06:44:58.254Z,52.70
2019-06-08T06:47:32.546Z,53.00
2019-06-08T06:50:11.471Z,52.90
2019-06-08T06:52:44.642Z,52.50
2019-06-08T06:55:20.121Z,52.70
2019-06-08T06:57:53.556Z,52.90
2019-06-08T07:00:29.143Z,53.20
2019-06-08T07:03:03.544Z,52.20
2019-06-08T07:05:35.551Z,52.50
2019-06-08T07:08:07.817Z,52.40
2019-06-08T07:10:41.744Z,52.60
2019-06-08T07:13:13.653Z,52.50
2019-06-08T07:15:46.980Z,52.50
2019-06-08T07:18:39.853Z,52.40
2019-06-08T07:21:13.128Z,52.50
2019-06-08T07:23:46.169Z,51.70
2019-06-08T07:26:18.789Z,52.60
2019-06-08T07:28:52.428Z,52.00
2019-06-08T07:31:25.088Z,51.60
2019-06-08T07:33:58.000Z,50.60
2019-06-08T07:36:31.701Z,51.70
2019-06-08T07:39:04.371Z,51.00
2019-06-08T07:41:37.072Z,51.20
2019-06-08T07:44:09.096Z,51.20
2019-06-08T07:46:41.904Z,51.20
2019-06-08T07:49:14.772Z,51.20
2019-06-08T07:51:58.667Z,50.80
2019-06-08T07:54:21.458Z,51.40
2019-06-08T07:56:54.835Z,51.30
2019-06-08T07:59:27.257Z,50.80
2019-06-08T08:01:59.667Z,51.40
2019-06-08T08:04:31.773Z,51.50
2019-06-08T08:07:03.950Z,51.20
2019-06-08T08:09:35.947Z,50.90
2019-06-08T08:12:12.035Z,50.80
2019-06-08T08:14:42.048Z,51.20
2019-06-08T08:17:14.309Z,50.80
2019-06-08T08:19:47.028Z,51.10
2019-06-08T08:22:26.195Z,51.30
2019-06-08T08:25:18.062Z,51.30
2019-06-08T08:27:50.338Z,51.10
2019-06-08T08:30:23.924Z,51.20
2019-06-08T08:33:18.402Z,51.40
2019-06-08T08:35:52.160Z,51.10
2019-06-08T08:38:24.285Z,50.30
2019-06-08T08:41:03.834Z,50.20
2019-06-08T08:43:30.493Z,50.40
2019-06-08T08:46:05.040Z,50.70
2019-06-08T08:48:37.725Z,50.20
2019-06-08T08:51:10.703Z,50.60
2019-06-08T08:53:43.347Z,51.40
2019-06-08T08:56:15.578Z,51.20
2019-06-08T08:58:48.187Z,51.00
2019-06-08T09:01:20.611Z,50.90
2019-06-08T09:03:56.011Z,50.80
2019-06-08T09:06:27.953Z,50.70
2019-06-08T09:09:03.257Z,50.30
2019-06-08T09:11:33.826Z,50.70
2019-06-08T09:14:12.563Z,51.00
2019-06-08T09:16:40.081Z,50.50
2019-06-08T09:19:12.260Z,50.70
2019-06-08T09:21:44.301Z,51.20
2019-06-08T09:24:18.565Z,51.70
2019-06-08T09:26:52.344Z,51.90
2019-06-08T09:29:24.575Z,51.70
2019-06-08T09:31:59.061Z,51.50
2019-06-08T09:34:33.803Z,51.50
2019-06-08T09:37:18.678Z,51.00
2019-06-08T09:39:50.504Z,51.50
2019-06-08T09:42:22.897Z,51.60
2019-06-08T09:45:00.097Z,51.70
2019-06-08T09:47:29.770Z,52.20
2019-06-08T09:50:04.484Z,52.30
2019-06-08T09:52:41.023Z,52.60
2019-06-08T09:55:11.943Z,52.90
2019-06-08T09:57:43.754Z,53.00
2019-06-08T10:00:21.334Z,53.00
2019-06-08T10:02:51.209Z,53.30
2019-06-08T10:05:23.239Z,53.00
2019-06-08T10:07:58.717Z,53.00
2019-06-08T10:10:29.247Z,53.40
2019-06-08T10:13:21.645Z,53.80
2019-06-08T10:15:55.189Z,54.30
2019-06-08T10:18:32.961Z,54.30
2019-06-08T10:21:06.179Z,54.30
2019-06-08T10:23:41.609Z,54.90
2019-06-08T10:26:13.765Z,54.90
2019-06-08T10:28:48.276Z,55.30
2019-06-08T10:31:19.279Z,55.80
2019-06-08T10:33:51.857Z,55.20
2019-06-08T10:36:23.968Z,55.60
2019-06-08T10:38:56.749Z,55.50
2019-06-08T10:41:29.828Z,56.00
2019-06-08T10:44:01.556Z,56.00
2019-06-08T10:46:43.109Z,56.80
2019-06-08T10:49:18.352Z,56.50
2019-06-08T10:51:49.369Z,56.80
2019-06-08T10:54:40.684Z,56.80
2019-06-08T10:57:14.051Z,57.70
2019-06-08T10:59:48.583Z,57.40
2019-06-08T11:02:20.314Z,57.30
2019-06-08T11:04:52.441Z,57.20
2019-06-08T11:07:24.532Z,57.20
2019-06-08T11:09:58.660Z,57.20
2019-06-08T11:12:31.076Z,57.40
2019-06-08T11:15:03.620Z,57.60
2019-06-08T11:17:37.876Z,57.80
2019-06-08T11:20:13.221Z,57.70
2019-06-08T11:22:44.399Z,57.90
2019-06-08T11:25:19.761Z,58.20
2019-06-08T11:27:50.714Z,58.10
2019-06-08T11:30:27.157Z,58.30
2019-06-08T11:32:57.746Z,58.70
2019-06-08T11:35:30.218Z,58.90
2019-06-08T11:38:02.300Z,59.00
2019-06-08T11:40:34.793Z,59.40
2019-06-08T11:43:08.505Z,59.80
2019-06-08T11:45:40.660Z,59.50
2019-06-08T11:48:13.106Z,60.10
2019-06-08T11:50:45.641Z,60.50
2019-06-08T11:53:38.443Z,60.70
2019-06-08T11:56:13.319Z,61.30
2019-06-08T11:59:05.753Z,61.30
2019-06-08T12:01:37.914Z,61.40
2019-06-08T12:04:10.186Z,62.00
2019-06-08T12:06:42.321Z,62.30
2019-06-08T12:09:14.774Z,62.80
2019-06-08T12:11:48.055Z,63.20
2019-06-08T12:14:20.424Z,63.10
2019-06-08T12:16:52.204Z,63.60
2019-06-08T12:19:24.375Z,63.60
2019-06-08T12:21:57.980Z,63.70
2019-06-08T12:24:41.422Z,63.70
2019-06-08T12:27:18.669Z,64.10
2019-06-08T12:29:37.653Z,64.20
2019-06-08T12:32:12.070Z,64.40
2019-06-08T12:34:43.458Z,64.40
2019-06-08T12:37:21.303Z,64.60
2019-06-08T12:39:49.478Z,64.70
2019-06-08T12:42:41.595Z,64.80
2019-06-08T12:45:15.361Z,64.70
2019-06-08T12:47:48.153Z,65.10
2019-06-08T12:50:20.386Z,64.40
2019-06-08T12:52:52.307Z,64.70
2019-06-08T12:55:25.618Z,64.80
2019-06-08T12:57:58.224Z,64.90
2019-06-08T13:00:31.125Z,64.20
2019-06-08T13:03:03.585Z,64.00
2019-06-08T13:05:37.818Z,64.00
2019-06-08T13:08:10.528Z,63.60
2019-06-08T13:10:43.778Z,63.70
2019-06-08T13:13:19.106Z,63.60
2019-06-08T13:15:49.762Z,63.10
2019-06-08T13:18:22.359Z,63.50
2019-06-08T13:20:54.578Z,63.10
2019-06-08T13:23:28.315Z,63.20
2019-06-08T13:26:00.414Z,63.00
2019-06-08T13:28:32.506Z,63.20
2019-06-08T13:31:04.795Z,63.20
2019-06-08T13:33:38.411Z,63.00
2019-06-08T13:36:10.536Z,63.40
2019-06-08T13:38:51.659Z,63.00
2019-06-08T13:41:26.514Z,63.20
2019-06-08T13:43:58.471Z,63.00
2019-06-08T13:46:30.405Z,63.60
2019-06-08T13:49:02.282Z,63.50
2019-06-08T13:51:34.619Z,64.10
2019-06-08T13:54:08.496Z,64.00
2019-06-08T13:56:40.938Z,64.20
2019-06-08T13:59:14.264Z,64.10
2019-06-08T14:01:49.863Z,64.50
2019-06-08T14:04:22.545Z,64.80
2019-06-08T14:06:58.113Z,64.90
2019-06-08T14:09:31.540Z,65.30
2019-06-08T14:12:03.835Z,65.20
2019-06-08T14:14:39.630Z,65.50
2019-06-08T14:17:10.276Z,65.70
2019-06-08T14:19:42.551Z,65.80
2019-06-08T14:22:14.503Z,66.10
2019-06-08T14:24:47.855Z,66.40
2019-06-08T14:27:21.301Z,66.80
2019-06-08T14:29:53.822Z,66.80
2019-06-08T14:32:25.979Z,67.20
2019-06-08T14:34:58.366Z,67.40
2019-06-08T14:37:30.708Z,67.80
2019-06-08T14:40:02.816Z,67.90
2019-06-08T14:42:34.663Z,67.90
2019-06-08T14:45:11.080Z,68.20
2019-06-08T14:47:43.460Z,68.40
2019-06-08T14:50:21.108Z,68.50
2019-06-08T14:52:52.753Z,68.60
2019-06-08T14:55:25.074Z,68.80
2019-06-08T14:57:57.998Z,69.00
2019-06-08T15:00:30.370Z,69.30
2019-06-08T15:03:02.631Z,69.40
2019-06-08T15:05:36.549Z,69.50
2019-06-08T15:08:09.008Z,69.80
2019-06-08T15:10:41.286Z,70.00
2019-06-08T15:13:13.499Z,70.10
2019-06-08T15:15:45.901Z,70.30
2019-06-08T15:18:18.545Z,70.50
2019-06-08T15:20:51.824Z,70.80
2019-06-08T15:23:24.819Z,70.50
2019-06-08T15:25:58.231Z,71.00
2019-06-08T15:28:35.773Z,70.50
2019-06-08T15:31:04.614Z,70.80
2019-06-08T15:33:38.336Z,71.00
2019-06-08T15:36:10.659Z,71.30
2019-06-08T15:38:43.521Z,72.00
2019-06-08T15:41:20.789Z,71.10
2019-06-08T15:43:49.207Z,71.20
2019-06-08T15:46:22.346Z,71.20
2019-06-08T15:48:54.592Z,71.20
2019-06-08T15:51:29.896Z,71.20
2019-06-08T15:54:00.656Z,71.50
2019-06-08T15:56:45.758Z,71.50
2019-06-08T15:59:08.857Z,71.60
2019-06-08T16:01:40.407Z,71.70
2019-06-08T16:04:12.400Z,71.80
2019-06-08T16:06:44.493Z,72.40
2019-06-08T16:09:16.646Z,72.60
2019-06-08T16:11:52.753Z,72.30
2019-06-08T16:14:26.591Z,72.50
2019-06-08T16:16:58.799Z,72.60
2019-06-08T16:19:31.889Z,72.30
2019-06-08T16:22:03.991Z,72.20
2019-06-08T16:24:36.523Z,72.50
2019-06-08T16:27:08.841Z,72.20
2019-06-08T16:29:40.681Z,72.40
2019-06-08T16:32:13.234Z,72.20
2019-06-08T16:34:45.417Z,72.10
2019-06-08T16:37:17.382Z,72.10
2019-06-08T16:39:49.480Z,72.10
2019-06-08T16:42:21.551Z,73.60
2019-06-08T16:44:53.475Z,73.10
2019-06-08T16:47:27.032Z,74.10
2019-06-08T16:49:59.140Z,73.50
2019-06-08T16:52:32.449Z,73.80
2019-06-08T16:55:05.629Z,73.70
2019-06-08T16:57:39.824Z,73.80
2019-06-08T17:00:42.197Z,74.10
2019-06-08T17:02:45.571Z,74.10
2019-06-08T17:05:17.986Z,74.20
2019-06-08T17:07:50.261Z,74.60
2019-06-08T17:10:22.427Z,74.80
2019-06-08T17:12:54.491Z,75.50
2019-06-08T17:15:26.619Z,75.40
2019-06-08T17:17:58.850Z,75.50
2019-06-08T17:20:31.987Z,76.20
2019-06-08T17:23:04.178Z,75.80
2019-06-08T17:25:36.607Z,75.60
2019-06-08T17:28:08.919Z,75.10
2019-06-08T17:30:41.482Z,75.50
2019-06-08T17:33:13.899Z,75.10
2019-06-08T17:35:46.648Z,74.90
2019-06-08T17:38:18.870Z,75.20
2019-06-08T17:40:51.155Z,74.70
2019-06-08T17:43:23.459Z,75.20
2019-06-08T17:45:55.498Z,74.90
2019-06-08T17:48:27.993Z,74.60
2019-06-08T17:51:00.109Z,75.20
2019-06-08T17:53:32.774Z,74.90
2019-06-08T17:56:05.092Z,75.10
2019-06-08T17:58:37.774Z,75.00
2019-06-08T18:01:09.765Z,75.50
2019-06-08T18:03:43.065Z,75.60
2019-06-08T18:06:17.840Z,75.40
2019-06-08T18:08:49.542Z,75.80
2019-06-08T18:11:21.788Z,75.50
2019-06-08T18:13:53.810Z,76.00
2019-06-08T18:16:27.887Z,76.20
2019-06-08T18:19:00.025Z,75.90
2019-06-08T18:21:32.524Z,76.20
2019-06-08T18:24:04.728Z,76.60
2019-06-08T18:26:38.805Z,76.40
2019-06-08T18:29:10.889Z,76.30
2019-06-08T18:31:44.002Z,76.50
2019-06-08T18:34:17.800Z,76.70
2019-06-08T18:36:50.290Z,76.40
2019-06-08T18:39:22.756Z,76.50
2019-06-08T18:41:58.221Z,77.00
2019-06-08T18:44:29.302Z,77.30
2019-06-08T18:47:01.530Z,77.60
2019-06-08T18:49:35.227Z,77.70
2019-06-08T18:52:08.095Z,77.70
2019-06-08T18:54:41.626Z,77.80
2019-06-08T18:57:14.162Z,77.80
2019-06-08T18:59:50.953Z,77.80
2019-06-08T19:02:20.221Z,78.20
2019-06-08T19:04:52.631Z,78.40
2019-06-08T19:07:24.624Z,78.50
2019-06-08T19:09:59.996Z,78.60
2019-06-08T19:12:32.153Z,78.70
2019-06-08T19:15:11.127Z,79.00
2019-06-08T19:17:43.903Z,79.00
2019-06-08T19:20:13.404Z,79.50
2019-06-08T19:22:51.942Z,79.30
2019-06-08T19:25:19.801Z,79.50
2019-06-08T19:27:53.283Z,79.20
2019-06-08T19:30:28.141Z,79.70
2019-06-08T19:32:59.516Z,79.70
2019-06-08T19:35:32.908Z,80.30
2019-06-08T19:38:07.433Z,80.10
2019-06-08T19:40:40.664Z,81.30
2019-06-08T19:43:13.128Z,80.60
2019-06-08T19:45:46.409Z,80.80
2019-06-08T19:48:19.366Z,81.00
2019-06-08T19:50:54.375Z,81.10
2019-06-08T19:53:28.276Z,80.80
2019-06-08T19:56:00.150Z,81.20
2019-06-08T19:58:32.305Z,81.10
2019-06-08T20:01:04.166Z,81.20
2019-06-08T20:03:37.858Z,81.20
2019-06-08T20:06:10.339Z,81.30
2019-06-08T20:08:42.950Z,81.20
2019-06-08T20:11:17.299Z,81.30
2019-06-08T20:13:50.424Z,81.40
2019-06-08T20:16:22.767Z,81.50
2019-06-08T20:18:57.597Z,81.60
2019-06-08T20:21:28.464Z,81.50
2019-06-08T20:24:10.510Z,81.40
2019-06-08T20:26:42.517Z,81.70
2019-06-08T20:29:16.450Z,81.40
2019-06-08T20:31:51.469Z,81.90
2019-06-08T20:34:22.526Z,81.90
2019-06-08T20:36:54.583Z,81.70
2019-06-08T20:39:27.310Z,82.10
2019-06-08T20:41:59.522Z,82.10
2019-06-08T20:44:31.442Z,82.20
2019-06-08T20:47:03.404Z,82.30
2019-06-08T20:49:37.241Z,82.30
2019-06-08T20:52:10.031Z,82.20
2019-06-08T20:54:42.827Z,82.30
2019-06-08T20:57:16.980Z,82.60
2019-06-08T20:59:50.670Z,83.40
2019-06-08T21:02:22.762Z,82.70
2019-06-08T21:04:56.270Z,82.50
2019-06-08T21:07:28.636Z,82.80
2019-06-08T21:10:00.945Z,83.00
2019-06-08T21:12:33.049Z,83.10
2019-06-08T21:15:07.052Z,83.00
2019-06-08T21:17:40.088Z,83.00
2019-06-08T21:20:12.444Z,83.20
2019-06-08T21:22:46.028Z,83.10
2019-06-08T21:25:18.646Z,83.00
2019-06-08T21:27:51.439Z,83.20
2019-06-08T21:30:25.181Z,83.10
2019-06-08T21:33:00.685Z,82.90
2019-06-08T21:35:31.307Z,82.80
2019-06-08T21:38:17.027Z,82.70
2019-06-08T21:40:37.642Z,82.80
2019-06-08T21:43:09.871Z,82.60
2019-06-08T21:45:42.245Z,82.70
2019-06-08T21:48:14.724Z,82.80
2019-06-08T21:50:48.968Z,83.00
2019-06-08T21:53:21.056Z,83.30
2019-06-08T21:55:54.180Z,83.30
2019-06-08T21:58:27.173Z,84.30
2019-06-08T22:01:01.052Z,83.60
2019-06-08T22:03:33.401Z,83.30
2019-06-08T22:06:07.855Z,83.50
2019-06-08T22:08:39.355Z,83.60
2019-06-08T22:11:11.361Z,83.70
2019-06-08T22:13:43.604Z,84.30
2019-06-08T22:16:35.005Z,83.60
2019-06-08T22:19:07.603Z,84.00
2019-06-08T22:22:01.689Z,83.80
2019-06-08T22:24:32.843Z,83.80
2019-06-08T22:27:07.044Z,83.80
2019-06-08T22:29:38.588Z,83.80
2019-06-08T22:32:10.962Z,83.70
2019-06-08T22:34:43.015Z,83.90
2019-06-08T22:37:15.125Z,84.00
2019-06-08T22:39:47.956Z,84.20
2019-06-08T22:42:20.124Z,84.70
2019-06-08T22:44:52.728Z,84.50
2019-06-08T22:47:27.161Z,84.60
2019-06-08T22:50:00.403Z,84.70
2019-06-08T22:52:33.149Z,85.00
2019-06-08T22:55:10.082Z,85.20
2019-06-08T22:57:39.784Z,85.10
2019-06-08T23:00:17.481Z,85.20
2019-06-08T23:02:48.555Z,85.70
2019-06-08T23:05:20.365Z,85.40
2019-06-08T23:07:54.746Z,85.20
2019-06-08T23:10:26.406Z,85.30
2019-06-08T23:13:00.779Z,85.30
2019-06-08T23:15:32.354Z,85.30
2019-06-08T23:18:06.639Z,85.40
2019-06-08T23:20:38.163Z,85.10
2019-06-08T23:23:10.642Z,85.30
2019-06-08T23:25:44.030Z,85.50
2019-06-08T23:28:37.551Z,85.60
2019-06-08T23:31:20.746Z,86.30
2019-06-08T23:33:42.614Z,85.60
2019-06-08T23:36:46.042Z,85.70
2019-06-08T23:38:48.681Z,85.40
2019-06-08T23:41:20.903Z,85.10
2019-06-08T23:43:53.001Z,85.30
2019-06-08T23:46:27.409Z,85.20
2019-06-08T23:49:01.827Z,85.20
2019-06-08T23:51:32.917Z,85.20
2019-06-08T23:54:06.400Z,85.30
2019-06-08T23:56:39.131Z,85.00
2019-06-08T23:59:11.355Z,84.90
